sensor_id;sensor_type;location;lat;lon;timestamp;temperature;humidity
67750;DHT22;54550;48.838;8.828;2023-03-14T00:00:08;8.10;99.90
67750;DHT22;54550;48.838;8.828;2023-03-14T00:02:34;8.20;99.90
67750;DHT22;54550;48.838;8.828;2023-03-14T00:05:00;8.20;99.90
67750;DHT22;54550;48.838;8.828;2023-03-14T00:07:27;8.20;99.90
67750;DHT22;54550;48.838;8.828;2023-03-14T00:09:57;8.20;99.90
67750;DHT22;54550;48.838;8.828;2023-03-14T00:12:22;8.20;99.90
67750;DHT22;54550;48.838;8.828;2023-03-14T00:14:48;8.10;99.90
67750;DHT22;54550;48.838;8.828;2023-03-14T00:17:13;8.10;99.90
67750;DHT22;54550;48.838;8.828;2023-03-14T00:19:39;8.20;99.90
67750;DHT22;54550;48.838;8.828;2023-03-14T00:22:04;8.10;99.90
67750;DHT22;54550;48.838;8.828;2023-03-14T00:24:30;8.10;99.90
67750;DHT22;54550;48.838;8.828;2023-03-14T00:26:55;8.10;99.90
67750;DHT22;54550;48.838;8.828;2023-03-14T00:29:21;8.10;99.90
67750;DHT22;54550;48.838;8.828;2023-03-14T00:31:46;8.10;99.90
67750;DHT22;54550;48.838;8.828;2023-03-14T00:34:12;8.10;99.90
67750;DHT22;54550;48.838;8.828;2023-03-14T00:36:38;8.00;99.90
67750;DHT22;54550;48.838;8.828;2023-03-14T00:39:03;8.00;99.90
67750;DHT22;54550;48.838;8.828;2023-03-14T00:41:30;8.00;99.90
67750;DHT22;54550;48.838;8.828;2023-03-14T00:43:55;8.00;99.90
67750;DHT22;54550;48.838;8.828;2023-03-14T00:46:21;8.00;99.90
67750;DHT22;54550;48.838;8.828;2023-03-14T00:48:47;8.00;99.90
67750;DHT22;54550;48.838;8.828;2023-03-14T00:51:13;8.00;99.90
67750;DHT22;54550;48.838;8.828;2023-03-14T00:53:41;8.10;99.90
67750;DHT22;54550;48.838;8.828;2023-03-14T00:56:09;8.00;99.90
67750;DHT22;54550;48.838;8.828;2023-03-14T00:58:35;8.00;99.90
67750;DHT22;54550;48.838;8.828;2023-03-14T01:01:13;8.00;99.90
67750;DHT22;54550;48.838;8.828;2023-03-14T01:03:39;8.00;99.90
67750;DHT22;54550;48.838;8.828;2023-03-14T01:06:19;8.00;99.90
67750;DHT22;54550;48.838;8.828;2023-03-14T01:08:47;8.00;99.90
67750;DHT22;54550;48.838;8.828;2023-03-14T01:11:16;8.00;99.90
67750;DHT22;54550;48.838;8.828;2023-03-14T01:13:42;8.10;99.90
67750;DHT22;54550;48.838;8.828;2023-03-14T01:16:09;8.20;99.90
67750;DHT22;54550;48.838;8.828;2023-03-14T01:18:36;8.20;99.90
67750;DHT22;54550;48.838;8.828;2023-03-14T01:21:08;8.20;99.90
67750;DHT22;54550;48.838;8.828;2023-03-14T01:23:34;8.20;99.90
67750;DHT22;54550;48.838;8.828;2023-03-14T01:25:59;8.20;99.90
67750;DHT22;54550;48.838;8.828;2023-03-14T01:28:25;8.30;99.90
67750;DHT22;54550;48.838;8.828;2023-03-14T01:30:51;8.20;99.90
67750;DHT22;54550;48.838;8.828;2023-03-14T01:33:16;8.20;99.90
67750;DHT22;54550;48.838;8.828;2023-03-14T01:35:42;8.20;99.90
67750;DHT22;54550;48.838;8.828;2023-03-14T01:38:07;8.10;99.90
67750;DHT22;54550;48.838;8.828;2023-03-14T01:40:33;8.10;99.90
67750;DHT22;54550;48.838;8.828;2023-03-14T01:43:12;8.10;99.90
67750;DHT22;54550;48.838;8.828;2023-03-14T01:51:38;7.90;99.90
67750;DHT22;54550;48.838;8.828;2023-03-14T01:54:14;7.90;99.90
67750;DHT22;54550;48.838;8.828;2023-03-14T01:56:42;7.90;99.90
67750;DHT22;54550;48.838;8.828;2023-03-14T01:59:10;7.80;99.90
67750;DHT22;54550;48.838;8.828;2023-03-14T02:01:36;7.80;99.90
67750;DHT22;54550;48.838;8.828;2023-03-14T02:04:05;7.80;99.90
67750;DHT22;54550;48.838;8.828;2023-03-14T02:06:39;7.80;99.90
67750;DHT22;54550;48.838;8.828;2023-03-14T02:09:06;7.80;99.90
67750;DHT22;54550;48.838;8.828;2023-03-14T02:11:32;7.70;99.90
67750;DHT22;54550;48.838;8.828;2023-03-14T02:13:59;7.70;99.90
67750;DHT22;54550;48.838;8.828;2023-03-14T02:16:24;7.80;99.90
67750;DHT22;54550;48.838;8.828;2023-03-14T02:18:50;7.70;99.90
67750;DHT22;54550;48.838;8.828;2023-03-14T02:21:24;7.70;99.90
67750;DHT22;54550;48.838;8.828;2023-03-14T02:27:13;7.80;99.90
67750;DHT22;54550;48.838;8.828;2023-03-14T02:30:06;7.70;99.90
67750;DHT22;54550;48.838;8.828;2023-03-14T02:32:33;7.70;99.90
67750;DHT22;54550;48.838;8.828;2023-03-14T02:35:05;7.70;99.90
67750;DHT22;54550;48.838;8.828;2023-03-14T02:37:57;7.70;99.90
67750;DHT22;54550;48.838;8.828;2023-03-14T02:40:24;7.70;99.90
67750;DHT22;54550;48.838;8.828;2023-03-14T02:42:50;7.70;99.90
67750;DHT22;54550;48.838;8.828;2023-03-14T02:47:44;7.70;99.90
67750;DHT22;54550;48.838;8.828;2023-03-14T02:50:14;7.70;99.90
67750;DHT22;54550;48.838;8.828;2023-03-14T02:52:41;7.70;99.90
67750;DHT22;54550;48.838;8.828;2023-03-14T02:55:07;7.70;99.90
67750;DHT22;54550;48.838;8.828;2023-03-14T02:57:32;7.70;99.90
67750;DHT22;54550;48.838;8.828;2023-03-14T02:59:59;7.70;99.90
67750;DHT22;54550;48.838;8.828;2023-03-14T03:02:26;7.70;99.90
67750;DHT22;54550;48.838;8.828;2023-03-14T03:04:51;7.60;99.90
67750;DHT22;54550;48.838;8.828;2023-03-14T03:07:17;7.60;99.90
67750;DHT22;54550;48.838;8.828;2023-03-14T03:09:43;7.50;99.90
67750;DHT22;54550;48.838;8.828;2023-03-14T03:12:08;7.50;99.90
67750;DHT22;54550;48.838;8.828;2023-03-14T03:14:34;7.50;99.90
67750;DHT22;54550;48.838;8.828;2023-03-14T03:16:59;7.50;99.90
67750;DHT22;54550;48.838;8.828;2023-03-14T03:19:25;7.60;99.90
67750;DHT22;54550;48.838;8.828;2023-03-14T03:21:50;7.60;99.90
67750;DHT22;54550;48.838;8.828;2023-03-14T03:24:16;7.60;99.90
67750;DHT22;54550;48.838;8.828;2023-03-14T03:26:41;7.70;99.90
67750;DHT22;54550;48.838;8.828;2023-03-14T03:29:07;7.70;99.90
67750;DHT22;54550;48.838;8.828;2023-03-14T03:31:32;7.50;99.90
67750;DHT22;54550;48.838;8.828;2023-03-14T03:33:58;7.50;99.90
67750;DHT22;54550;48.838;8.828;2023-03-14T03:36:25;7.50;99.90
67750;DHT22;54550;48.838;8.828;2023-03-14T03:38:51;7.50;99.90
67750;DHT22;54550;48.838;8.828;2023-03-14T03:41:17;7.50;99.90
67750;DHT22;54550;48.838;8.828;2023-03-14T03:43:42;7.50;99.90
67750;DHT22;54550;48.838;8.828;2023-03-14T03:46:08;7.50;99.90
67750;DHT22;54550;48.838;8.828;2023-03-14T03:48:34;7.40;99.90
67750;DHT22;54550;48.838;8.828;2023-03-14T03:51:00;7.50;99.90
67750;DHT22;54550;48.838;8.828;2023-03-14T03:53:26;7.50;99.90
67750;DHT22;54550;48.838;8.828;2023-03-14T03:55:52;7.40;99.90
67750;DHT22;54550;48.838;8.828;2023-03-14T03:58:17;7.40;99.90
67750;DHT22;54550;48.838;8.828;2023-03-14T04:00:43;7.40;99.90
67750;DHT22;54550;48.838;8.828;2023-03-14T04:03:08;7.30;99.90
67750;DHT22;54550;48.838;8.828;2023-03-14T04:05:34;7.40;99.90
67750;DHT22;54550;48.838;8.828;2023-03-14T04:08:01;7.40;99.90
67750;DHT22;54550;48.838;8.828;2023-03-14T04:10:26;7.40;99.90
67750;DHT22;54550;48.838;8.828;2023-03-14T04:12:52;7.30;99.90
67750;DHT22;54550;48.838;8.828;2023-03-14T04:15:18;7.40;99.90
67750;DHT22;54550;48.838;8.828;2023-03-14T04:17:43;7.30;99.90
67750;DHT22;54550;48.838;8.828;2023-03-14T04:20:09;7.30;99.90
67750;DHT22;54550;48.838;8.828;2023-03-14T04:22:39;7.20;99.90
67750;DHT22;54550;48.838;8.828;2023-03-14T04:25:05;7.30;99.90
67750;DHT22;54550;48.838;8.828;2023-03-14T04:27:31;7.20;99.90
67750;DHT22;54550;48.838;8.828;2023-03-14T04:29:57;7.30;99.90
67750;DHT22;54550;48.838;8.828;2023-03-14T04:32:23;7.40;99.90
67750;DHT22;54550;48.838;8.828;2023-03-14T04:34:48;7.30;99.90
67750;DHT22;54550;48.838;8.828;2023-03-14T04:37:14;7.40;99.90
67750;DHT22;54550;48.838;8.828;2023-03-14T04:39:40;7.40;99.90
67750;DHT22;54550;48.838;8.828;2023-03-14T04:42:06;7.40;99.90
67750;DHT22;54550;48.838;8.828;2023-03-14T04:44:31;7.40;99.90
67750;DHT22;54550;48.838;8.828;2023-03-14T04:46:57;7.30;99.90
67750;DHT22;54550;48.838;8.828;2023-03-14T04:49:23;7.30;99.90
67750;DHT22;54550;48.838;8.828;2023-03-14T04:51:48;7.30;99.90
67750;DHT22;54550;48.838;8.828;2023-03-14T04:54:17;7.30;99.90
67750;DHT22;54550;48.838;8.828;2023-03-14T04:56:42;7.20;99.90
67750;DHT22;54550;48.838;8.828;2023-03-14T04:59:08;7.10;99.90
67750;DHT22;54550;48.838;8.828;2023-03-14T05:01:34;7.10;99.90
67750;DHT22;54550;48.838;8.828;2023-03-14T05:04:00;7.10;99.90
67750;DHT22;54550;48.838;8.828;2023-03-14T05:06:25;7.10;99.90
67750;DHT22;54550;48.838;8.828;2023-03-14T05:08:51;7.30;99.90
67750;DHT22;54550;48.838;8.828;2023-03-14T05:11:16;7.10;99.90
67750;DHT22;54550;48.838;8.828;2023-03-14T05:13:42;7.10;99.90
67750;DHT22;54550;48.838;8.828;2023-03-14T05:16:10;7.20;99.90
67750;DHT22;54550;48.838;8.828;2023-03-14T05:18:36;7.30;99.90
67750;DHT22;54550;48.838;8.828;2023-03-14T05:21:01;7.30;99.90
67750;DHT22;54550;48.838;8.828;2023-03-14T05:23:27;7.30;99.90
67750;DHT22;54550;48.838;8.828;2023-03-14T05:25:53;7.20;99.90
67750;DHT22;54550;48.838;8.828;2023-03-14T05:28:18;7.40;99.90
67750;DHT22;54550;48.838;8.828;2023-03-14T05:30:44;7.40;99.90
67750;DHT22;54550;48.838;8.828;2023-03-14T05:33:09;7.30;99.90
67750;DHT22;54550;48.838;8.828;2023-03-14T05:35:35;7.30;99.90
67750;DHT22;54550;48.838;8.828;2023-03-14T05:38:01;7.40;99.90
67750;DHT22;54550;48.838;8.828;2023-03-14T05:40:26;7.30;99.90
67750;DHT22;54550;48.838;8.828;2023-03-14T05:42:52;7.40;99.90
67750;DHT22;54550;48.838;8.828;2023-03-14T05:45:18;7.30;99.90
67750;DHT22;54550;48.838;8.828;2023-03-14T05:47:43;7.30;99.90
67750;DHT22;54550;48.838;8.828;2023-03-14T05:50:09;7.30;99.90
67750;DHT22;54550;48.838;8.828;2023-03-14T05:52:35;7.40;99.90
67750;DHT22;54550;48.838;8.828;2023-03-14T05:55:01;7.60;99.90
67750;DHT22;54550;48.838;8.828;2023-03-14T05:57:26;7.50;99.90
67750;DHT22;54550;48.838;8.828;2023-03-14T05:59:52;7.50;99.90
67750;DHT22;54550;48.838;8.828;2023-03-14T06:02:17;7.60;99.90
67750;DHT22;54550;48.838;8.828;2023-03-14T06:04:43;7.60;99.90
67750;DHT22;54550;48.838;8.828;2023-03-14T06:07:08;7.60;99.90
67750;DHT22;54550;48.838;8.828;2023-03-14T06:09:34;7.60;99.90
67750;DHT22;54550;48.838;8.828;2023-03-14T06:12:00;7.70;99.90
67750;DHT22;54550;48.838;8.828;2023-03-14T06:14:25;7.60;99.90
67750;DHT22;54550;48.838;8.828;2023-03-14T06:16:51;7.60;99.90
67750;DHT22;54550;48.838;8.828;2023-03-14T06:19:17;7.60;99.90
67750;DHT22;54550;48.838;8.828;2023-03-14T06:21:43;7.60;99.90
67750;DHT22;54550;48.838;8.828;2023-03-14T06:24:09;7.50;99.90
67750;DHT22;54550;48.838;8.828;2023-03-14T06:26:34;7.50;99.90
67750;DHT22;54550;48.838;8.828;2023-03-14T06:29:00;7.60;99.90
67750;DHT22;54550;48.838;8.828;2023-03-14T06:31:29;7.60;99.90
67750;DHT22;54550;48.838;8.828;2023-03-14T06:33:55;7.60;99.90
67750;DHT22;54550;48.838;8.828;2023-03-14T06:36:21;7.60;99.90
67750;DHT22;54550;48.838;8.828;2023-03-14T06:38:46;7.70;99.90
67750;DHT22;54550;48.838;8.828;2023-03-14T06:41:12;7.60;99.90
67750;DHT22;54550;48.838;8.828;2023-03-14T06:43:38;7.60;99.90
67750;DHT22;54550;48.838;8.828;2023-03-14T06:46:03;7.60;99.90
67750;DHT22;54550;48.838;8.828;2023-03-14T06:48:29;7.80;99.90
67750;DHT22;54550;48.838;8.828;2023-03-14T06:50:54;7.90;99.90
67750;DHT22;54550;48.838;8.828;2023-03-14T06:53:20;7.90;99.90
67750;DHT22;54550;48.838;8.828;2023-03-14T06:55:46;7.90;99.90
67750;DHT22;54550;48.838;8.828;2023-03-14T06:58:12;8.00;99.90
67750;DHT22;54550;48.838;8.828;2023-03-14T07:00:37;8.00;99.90
67750;DHT22;54550;48.838;8.828;2023-03-14T07:03:03;8.00;99.90
67750;DHT22;54550;48.838;8.828;2023-03-14T07:05:28;8.10;99.90
67750;DHT22;54550;48.838;8.828;2023-03-14T07:07:54;8.40;99.90
67750;DHT22;54550;48.838;8.828;2023-03-14T07:10:20;8.50;99.90
67750;DHT22;54550;48.838;8.828;2023-03-14T07:12:45;8.60;99.90
67750;DHT22;54550;48.838;8.828;2023-03-14T07:15:11;8.80;99.90
67750;DHT22;54550;48.838;8.828;2023-03-14T07:17:36;8.90;99.90
67750;DHT22;54550;48.838;8.828;2023-03-14T07:20:02;9.00;99.90
67750;DHT22;54550;48.838;8.828;2023-03-14T07:22:30;9.10;99.90
67750;DHT22;54550;48.838;8.828;2023-03-14T07:24:55;9.30;99.90
67750;DHT22;54550;48.838;8.828;2023-03-14T07:27:21;9.40;99.90
67750;DHT22;54550;48.838;8.828;2023-03-14T07:29:47;9.60;99.90
67750;DHT22;54550;48.838;8.828;2023-03-14T07:32:12;9.80;99.90
67750;DHT22;54550;48.838;8.828;2023-03-14T07:34:41;9.90;99.90
67750;DHT22;54550;48.838;8.828;2023-03-14T07:37:06;10.10;99.90
67750;DHT22;54550;48.838;8.828;2023-03-14T07:39:32;10.20;99.90
67750;DHT22;54550;48.838;8.828;2023-03-14T07:41:58;10.20;99.90
67750;DHT22;54550;48.838;8.828;2023-03-14T07:44:23;10.20;99.90
67750;DHT22;54550;48.838;8.828;2023-03-14T07:46:49;10.20;99.90
67750;DHT22;54550;48.838;8.828;2023-03-14T07:49:14;10.20;99.90
67750;DHT22;54550;48.838;8.828;2023-03-14T07:51:40;10.10;99.90
67750;DHT22;54550;48.838;8.828;2023-03-14T07:54:05;10.10;99.90
67750;DHT22;54550;48.838;8.828;2023-03-14T07:56:31;10.00;99.90
67750;DHT22;54550;48.838;8.828;2023-03-14T07:58:57;10.00;99.90
67750;DHT22;54550;48.838;8.828;2023-03-14T08:01:23;9.80;99.90
67750;DHT22;54550;48.838;8.828;2023-03-14T08:03:48;9.70;99.90
67750;DHT22;54550;48.838;8.828;2023-03-14T08:06:14;9.70;99.90
67750;DHT22;54550;48.838;8.828;2023-03-14T08:08:39;9.70;99.90
67750;DHT22;54550;48.838;8.828;2023-03-14T08:11:06;9.80;99.90
67750;DHT22;54550;48.838;8.828;2023-03-14T08:13:34;10.10;99.90
67750;DHT22;54550;48.838;8.828;2023-03-14T08:16:00;10.40;99.90
67750;DHT22;54550;48.838;8.828;2023-03-14T08:18:25;11.00;99.90
67750;DHT22;54550;48.838;8.828;2023-03-14T08:20:51;11.40;99.90
67750;DHT22;54550;48.838;8.828;2023-03-14T08:23:16;11.60;99.90
67750;DHT22;54550;48.838;8.828;2023-03-14T08:25:42;11.60;99.90
67750;DHT22;54550;48.838;8.828;2023-03-14T08:28:08;11.30;99.90
67750;DHT22;54550;48.838;8.828;2023-03-14T08:30:34;10.80;99.90
67750;DHT22;54550;48.838;8.828;2023-03-14T08:32:59;10.60;99.90
67750;DHT22;54550;48.838;8.828;2023-03-14T08:35:25;10.30;99.90
67750;DHT22;54550;48.838;8.828;2023-03-14T08:37:51;10.20;99.90
67750;DHT22;54550;48.838;8.828;2023-03-14T08:40:18;10.20;99.90
67750;DHT22;54550;48.838;8.828;2023-03-14T08:42:44;10.20;99.90
67750;DHT22;54550;48.838;8.828;2023-03-14T08:45:12;10.20;99.90
67750;DHT22;54550;48.838;8.828;2023-03-14T08:47:39;10.10;99.90
67750;DHT22;54550;48.838;8.828;2023-03-14T08:50:06;10.00;99.90
67750;DHT22;54550;48.838;8.828;2023-03-14T08:52:32;10.00;99.90
67750;DHT22;54550;48.838;8.828;2023-03-14T08:54:58;10.00;99.90
67750;DHT22;54550;48.838;8.828;2023-03-14T08:57:24;10.10;99.90
67750;DHT22;54550;48.838;8.828;2023-03-14T08:59:53;10.00;99.90
67750;DHT22;54550;48.838;8.828;2023-03-14T09:02:20;9.80;99.90
67750;DHT22;54550;48.838;8.828;2023-03-14T09:04:46;9.60;99.90
67750;DHT22;54550;48.838;8.828;2023-03-14T09:07:11;9.50;99.90
67750;DHT22;54550;48.838;8.828;2023-03-14T09:09:37;9.50;99.90
67750;DHT22;54550;48.838;8.828;2023-03-14T09:12:03;9.60;99.90
67750;DHT22;54550;48.838;8.828;2023-03-14T09:14:29;9.50;99.90
67750;DHT22;54550;48.838;8.828;2023-03-14T09:16:54;9.60;99.90
67750;DHT22;54550;48.838;8.828;2023-03-14T09:19:20;9.80;99.90
67750;DHT22;54550;48.838;8.828;2023-03-14T09:21:46;10.10;99.90
67750;DHT22;54550;48.838;8.828;2023-03-14T09:24:12;10.10;99.90
67750;DHT22;54550;48.838;8.828;2023-03-14T09:26:37;10.00;99.90
67750;DHT22;54550;48.838;8.828;2023-03-14T09:29:03;9.90;99.90
67750;DHT22;54550;48.838;8.828;2023-03-14T09:31:29;9.90;99.90
67750;DHT22;54550;48.838;8.828;2023-03-14T09:33:55;9.90;99.90
67750;DHT22;54550;48.838;8.828;2023-03-14T09:36:20;9.70;99.90
67750;DHT22;54550;48.838;8.828;2023-03-14T09:38:46;9.70;99.90
67750;DHT22;54550;48.838;8.828;2023-03-14T09:41:18;9.80;99.90
67750;DHT22;54550;48.838;8.828;2023-03-14T09:43:47;10.00;99.90
67750;DHT22;54550;48.838;8.828;2023-03-14T09:46:16;10.30;99.90
67750;DHT22;54550;48.838;8.828;2023-03-14T09:48:43;10.50;99.90
67750;DHT22;54550;48.838;8.828;2023-03-14T09:51:17;10.90;99.90
67750;DHT22;54550;48.838;8.828;2023-03-14T09:53:47;11.30;99.90
67750;DHT22;54550;48.838;8.828;2023-03-14T09:56:17;11.50;99.90
67750;DHT22;54550;48.838;8.828;2023-03-14T09:58:48;12.00;99.90
67750;DHT22;54550;48.838;8.828;2023-03-14T10:01:19;12.10;99.90
67750;DHT22;54550;48.838;8.828;2023-03-14T10:06:13;12.50;99.90
67750;DHT22;54550;48.838;8.828;2023-03-14T10:08:43;11.90;99.90
67750;DHT22;54550;48.838;8.828;2023-03-14T10:11:15;11.70;99.90
67750;DHT22;54550;48.838;8.828;2023-03-14T10:14:04;11.30;99.90
67750;DHT22;54550;48.838;8.828;2023-03-14T10:16:32;11.00;99.90
67750;DHT22;54550;48.838;8.828;2023-03-14T10:19:06;10.50;99.90
67750;DHT22;54550;48.838;8.828;2023-03-14T10:21:43;10.10;99.90
67750;DHT22;54550;48.838;8.828;2023-03-14T10:24:33;10.10;99.90
67750;DHT22;54550;48.838;8.828;2023-03-14T10:27:02;10.00;99.90
67750;DHT22;54550;48.838;8.828;2023-03-14T10:29:30;9.80;99.90
67750;DHT22;54550;48.838;8.828;2023-03-14T10:32:04;9.70;99.90
67750;DHT22;54550;48.838;8.828;2023-03-14T10:34:36;9.70;99.90
67750;DHT22;54550;48.838;8.828;2023-03-14T10:37:21;9.50;99.90
67750;DHT22;54550;48.838;8.828;2023-03-14T10:39:49;9.40;99.90
67750;DHT22;54550;48.838;8.828;2023-03-14T10:42:29;9.20;99.90
67750;DHT22;54550;48.838;8.828;2023-03-14T10:44:58;9.10;99.90
67750;DHT22;54550;48.838;8.828;2023-03-14T10:47:26;8.90;99.90
67750;DHT22;54550;48.838;8.828;2023-03-14T10:49:54;8.80;99.90
67750;DHT22;54550;48.838;8.828;2023-03-14T10:52:28;8.70;99.90
67750;DHT22;54550;48.838;8.828;2023-03-14T10:55:00;8.60;99.90
67750;DHT22;54550;48.838;8.828;2023-03-14T10:57:26;8.50;99.90
67750;DHT22;54550;48.838;8.828;2023-03-14T10:59:53;8.50;99.90
67750;DHT22;54550;48.838;8.828;2023-03-14T11:02:34;8.40;99.90
67750;DHT22;54550;48.838;8.828;2023-03-14T11:07:36;8.40;99.90
67750;DHT22;54550;48.838;8.828;2023-03-14T11:13:15;8.40;99.90
67750;DHT22;54550;48.838;8.828;2023-03-14T11:16:01;8.50;99.90
67750;DHT22;54550;48.838;8.828;2023-03-14T11:21:59;8.60;99.90
67750;DHT22;54550;48.838;8.828;2023-03-14T11:24:41;8.70;99.90
67750;DHT22;54550;48.838;8.828;2023-03-14T11:30:05;8.80;99.90
67750;DHT22;54550;48.838;8.828;2023-03-14T11:35:53;8.70;99.90
67750;DHT22;54550;48.838;8.828;2023-03-14T11:38:34;8.60;99.90
67750;DHT22;54550;48.838;8.828;2023-03-14T11:41:01;8.50;99.90
67750;DHT22;54550;48.838;8.828;2023-03-14T11:43:34;8.50;99.90
67750;DHT22;54550;48.838;8.828;2023-03-14T11:46:25;8.50;99.90
67750;DHT22;54550;48.838;8.828;2023-03-14T11:51:52;8.50;99.90
67750;DHT22;54550;48.838;8.828;2023-03-14T11:54:45;8.60;99.90
67750;DHT22;54550;48.838;8.828;2023-03-14T11:57:18;8.60;99.90
67750;DHT22;54550;48.838;8.828;2023-03-14T11:59:55;8.50;99.90
67750;DHT22;54550;48.838;8.828;2023-03-14T12:03:12;8.50;99.90
67750;DHT22;54550;48.838;8.828;2023-03-14T12:05:50;8.40;99.90
67750;DHT22;54550;48.838;8.828;2023-03-14T12:08:46;8.50;99.90
67750;DHT22;54550;48.838;8.828;2023-03-14T12:13:39;8.40;99.90
67750;DHT22;54550;48.838;8.828;2023-03-14T12:16:33;8.10;99.90
67750;DHT22;54550;48.838;8.828;2023-03-14T12:19:27;7.80;99.90
67750;DHT22;54550;48.838;8.828;2023-03-14T12:24:34;7.60;99.90
67750;DHT22;54550;48.838;8.828;2023-03-14T12:27:02;7.40;99.90
67750;DHT22;54550;48.838;8.828;2023-03-14T12:29:28;7.40;99.90
67750;DHT22;54550;48.838;8.828;2023-03-14T12:34:34;9.30;99.90
67750;DHT22;54550;48.838;8.828;2023-03-14T12:40:09;10.30;99.90
67750;DHT22;54550;48.838;8.828;2023-03-14T12:42:42;11.20;99.90
67750;DHT22;54550;48.838;8.828;2023-03-14T12:48:00;12.30;99.90
67750;DHT22;54550;48.838;8.828;2023-03-14T12:50:54;12.30;99.90
67750;DHT22;54550;48.838;8.828;2023-03-14T12:53:52;11.60;99.90
67750;DHT22;54550;48.838;8.828;2023-03-14T12:56:54;11.40;99.90
67750;DHT22;54550;48.838;8.828;2023-03-14T13:02:24;9.40;99.90
67750;DHT22;54550;48.838;8.828;2023-03-14T13:05:01;8.90;99.90
67750;DHT22;54550;48.838;8.828;2023-03-14T13:10:25;8.80;99.90
67750;DHT22;54550;48.838;8.828;2023-03-14T13:13:20;9.40;99.90
67750;DHT22;54550;48.838;8.828;2023-03-14T13:15:48;9.40;99.90
67750;DHT22;54550;48.838;8.828;2023-03-14T13:18:36;9.00;99.90
67750;DHT22;54550;48.838;8.828;2023-03-14T13:21:21;8.60;99.90
67750;DHT22;54550;48.838;8.828;2023-03-14T13:23:59;9.10;99.90
67750;DHT22;54550;48.838;8.828;2023-03-14T13:26:36;9.40;99.90
67750;DHT22;54550;48.838;8.828;2023-03-14T13:29:11;9.40;99.90
67750;DHT22;54550;48.838;8.828;2023-03-14T13:31:44;10.30;99.90
67750;DHT22;54550;48.838;8.828;2023-03-14T13:34:11;10.80;99.90
67750;DHT22;54550;48.838;8.828;2023-03-14T13:36:37;10.20;99.60
67750;DHT22;54550;48.838;8.828;2023-03-14T13:39:10;9.60;99.90
67750;DHT22;54550;48.838;8.828;2023-03-14T13:41:38;9.30;99.90
67750;DHT22;54550;48.838;8.828;2023-03-14T13:44:07;9.00;99.90
67750;DHT22;54550;48.838;8.828;2023-03-14T13:46:35;8.90;99.90
67750;DHT22;54550;48.838;8.828;2023-03-14T13:49:03;9.00;99.90
67750;DHT22;54550;48.838;8.828;2023-03-14T13:51:29;9.70;98.50
67750;DHT22;54550;48.838;8.828;2023-03-14T13:53:59;9.70;98.10
67750;DHT22;54550;48.838;8.828;2023-03-14T13:56:27;8.90;97.20
67750;DHT22;54550;48.838;8.828;2023-03-14T13:58:54;8.70;97.70
67750;DHT22;54550;48.838;8.828;2023-03-14T14:01:32;8.60;98.30
67750;DHT22;54550;48.838;8.828;2023-03-14T14:04:20;8.70;98.50
67750;DHT22;54550;48.838;8.828;2023-03-14T14:06:57;8.80;98.60
67750;DHT22;54550;48.838;8.828;2023-03-14T14:09:29;8.60;97.90
67750;DHT22;54550;48.838;8.828;2023-03-14T14:12:06;8.20;98.50
67750;DHT22;54550;48.838;8.828;2023-03-14T14:17:12;7.90;99.90
67750;DHT22;54550;48.838;8.828;2023-03-14T14:19:39;7.80;99.90
67750;DHT22;54550;48.838;8.828;2023-03-14T14:22:05;7.80;99.50
67750;DHT22;54550;48.838;8.828;2023-03-14T14:24:33;7.70;99.30
67750;DHT22;54550;48.838;8.828;2023-03-14T14:27:02;7.70;99.00
67750;DHT22;54550;48.838;8.828;2023-03-14T14:29:33;7.60;99.90
67750;DHT22;54550;48.838;8.828;2023-03-14T14:34:55;7.40;99.60
67750;DHT22;54550;48.838;8.828;2023-03-14T14:37:27;7.40;99.90
67750;DHT22;54550;48.838;8.828;2023-03-14T14:39:56;7.30;99.90
67750;DHT22;54550;48.838;8.828;2023-03-14T14:42:26;7.30;99.90
67750;DHT22;54550;48.838;8.828;2023-03-14T14:44:53;7.40;99.90
67750;DHT22;54550;48.838;8.828;2023-03-14T14:47:21;7.50;99.90
67750;DHT22;54550;48.838;8.828;2023-03-14T14:49:48;7.50;99.90
67750;DHT22;54550;48.838;8.828;2023-03-14T14:52:17;7.50;99.70
67750;DHT22;54550;48.838;8.828;2023-03-14T14:57:32;7.50;99.90
67750;DHT22;54550;48.838;8.828;2023-03-14T15:00:07;7.60;99.90
67750;DHT22;54550;48.838;8.828;2023-03-14T15:02:51;7.70;99.90
67750;DHT22;54550;48.838;8.828;2023-03-14T15:05:22;7.70;99.20
67750;DHT22;54550;48.838;8.828;2023-03-14T15:07:49;7.70;99.90
67750;DHT22;54550;48.838;8.828;2023-03-14T15:10:23;7.80;99.90
67750;DHT22;54550;48.838;8.828;2023-03-14T15:12:49;7.90;99.90
67750;DHT22;54550;48.838;8.828;2023-03-14T15:15:15;8.10;99.90
67750;DHT22;54550;48.838;8.828;2023-03-14T15:17:41;8.20;99.90
67750;DHT22;54550;48.838;8.828;2023-03-14T15:20:10;8.20;99.90
67750;DHT22;54550;48.838;8.828;2023-03-14T15:22:39;8.20;99.90
67750;DHT22;54550;48.838;8.828;2023-03-14T15:25:05;8.20;99.90
67750;DHT22;54550;48.838;8.828;2023-03-14T15:27:31;8.40;99.90
67750;DHT22;54550;48.838;8.828;2023-03-14T15:29:57;8.40;99.50
67750;DHT22;54550;48.838;8.828;2023-03-14T15:32:24;8.40;99.90
67750;DHT22;54550;48.838;8.828;2023-03-14T15:34:49;8.40;99.90
67750;DHT22;54550;48.838;8.828;2023-03-14T15:37:16;8.50;99.90
67750;DHT22;54550;48.838;8.828;2023-03-14T15:39:42;8.60;99.60
67750;DHT22;54550;48.838;8.828;2023-03-14T15:42:08;8.70;99.00
67750;DHT22;54550;48.838;8.828;2023-03-14T15:44:35;8.70;99.80
67750;DHT22;54550;48.838;8.828;2023-03-14T15:47:00;8.70;99.90
67750;DHT22;54550;48.838;8.828;2023-03-14T15:49:27;8.60;99.90
67750;DHT22;54550;48.838;8.828;2023-03-14T15:51:52;8.40;99.90
67750;DHT22;54550;48.838;8.828;2023-03-14T15:54:18;8.10;99.90
67750;DHT22;54550;48.838;8.828;2023-03-14T15:56:43;7.90;99.90
67750;DHT22;54550;48.838;8.828;2023-03-14T15:59:09;7.60;99.90
67750;DHT22;54550;48.838;8.828;2023-03-14T16:01:34;7.40;99.90
67750;DHT22;54550;48.838;8.828;2023-03-14T16:04:00;7.30;99.90
67750;DHT22;54550;48.838;8.828;2023-03-14T16:06:27;7.20;99.90
67750;DHT22;54550;48.838;8.828;2023-03-14T16:08:53;7.10;99.90
67750;DHT22;54550;48.838;8.828;2023-03-14T16:11:19;7.00;99.90
67750;DHT22;54550;48.838;8.828;2023-03-14T16:13:45;7.00;99.90
67750;DHT22;54550;48.838;8.828;2023-03-14T16:16:11;7.00;99.90
67750;DHT22;54550;48.838;8.828;2023-03-14T16:18:40;7.00;99.90
67750;DHT22;54550;48.838;8.828;2023-03-14T16:21:11;7.00;99.90
67750;DHT22;54550;48.838;8.828;2023-03-14T16:23:37;7.00;99.90
67750;DHT22;54550;48.838;8.828;2023-03-14T16:26:05;7.00;99.90
67750;DHT22;54550;48.838;8.828;2023-03-14T16:28:31;7.00;99.90
67750;DHT22;54550;48.838;8.828;2023-03-14T16:31:05;7.00;99.90
67750;DHT22;54550;48.838;8.828;2023-03-14T16:33:32;7.00;99.90
67750;DHT22;54550;48.838;8.828;2023-03-14T16:36:00;7.00;99.90
67750;DHT22;54550;48.838;8.828;2023-03-14T16:38:26;7.00;99.90
67750;DHT22;54550;48.838;8.828;2023-03-14T16:41:06;7.10;99.90
67750;DHT22;54550;48.838;8.828;2023-03-14T16:43:33;7.00;99.90
67750;DHT22;54550;48.838;8.828;2023-03-14T16:46:02;7.00;99.90
67750;DHT22;54550;48.838;8.828;2023-03-14T16:48:28;6.90;99.90
67750;DHT22;54550;48.838;8.828;2023-03-14T16:50:54;6.70;99.90
67750;DHT22;54550;48.838;8.828;2023-03-14T16:53:19;6.40;99.90